Terminal Aerodrome Forecast
Issued by NWS

Current Version | Previous Version | Text Only | Print | Product List | Glossary Off
Versions: 1 2 3 4 5 6 7 8 9 10 11 12 13 14 15 16 17 18 19 20 21 22 23 24

864
FTUS41 KILN 280252 AAA
TAFLUK
TAF AMD
KLUK 280252Z 2803/2824 VRB03KT P6SM BKN150
     FM280600 00000KT 5SM BR VCTS SCT040CB BKN150
     FM280800 VRB02KT 5SM -SHRA BR VCTS BKN035CB BKN150
      TEMPO 2810/2814 4SM -TSRA BR OVC028CB
     FM281600 22004KT P6SM VCTS BKN040CB BKN150=

USA.gov is the U.S. government's official web portal to all federal, state and local government web resources and services.